الصفحة الرئيسية
METAR-TAF:

METAR-TAF

مطار :

مونتسرات, مونتسرات

دائرة عرض: 16-47-29N, خط طول: 062-11-36W, ارتفاع: 168 متر

مراقبة الطقس الحالي

تاريخ ووقت الإصدار 1ساعة و 13 دقيقة قبل الساعة 14:00UTC
ريح 13 عقدة من الشرق
درجة الحرارة 25°درجة مئوية
الرطوبة 94%
ضغط 1018 hPa
الرؤية 10 كم أو أكثر
غيوم مفككة على ارتفاع 1700 قدم
غيوم متفرقة على ارتفاع 3800 قدم

METAR: TRPG 251400Z 10013KT 9999 BKN017 SCT038 25/24 Q1018

زمن: 11:13 (15:13 UTC)

توقعات

تاريخ ووقت الإصدار 4ساعات و 13 دقيقة قبل الساعة 11:00UTC
التوقعات صالحة من25 الساعة 12 UTC إلى 26 الساعة 12 UTC
ريح 12 عقدة من الشرق
الرؤية 10 كم أو أكثر
غيوم متفرقة على ارتفاع 2000 قدم
نظرية الاحتمالات 30% :
مؤقت
من 25 الساعة 12 UTC إلى 25 الساعة 16 UTC
زخات من المطر,

TAF: TRPG 251100Z 2512/2612 09012KT 9999 SCT020 PROB30 TEMPO 2512/2516 SHRA

أرصاد الطقس والتوقعات من أكثر من 4000 مطار (تقارير الطقس للمطار METAR والتنبؤ بالطقس بالمطارTAF).

المحطات المتاحة هي النقط الصفراء والحمراء على الخريطة.

حرك المؤشر فوق النقطة لمعرفة اسم المحطة.

ثم انقر لمعرفة أرصاد وتوقعات الطقس.

لتغيير الخارطة: اضغط على الأزرار الخضراء مع رمز الصليب الأسود للتكبير. على الزر الأخضر مع شرطة للتصغير، أو على الأسهم الخضراء للخرائط المجاورة.


METAR-TAF: